sensor_id;sensor_type;location;lat;lon;timestamp;P1;durP1;ratioP1;P2;durP2;ratioP2
52590;SDS011;38483;42.620;25.394;2023-07-13T00:02:28;18.23;;;12.87;;
52590;SDS011;38483;42.620;25.394;2023-07-13T00:05:56;16.43;;;13.30;;
52590;SDS011;38483;42.620;25.394;2023-07-13T00:08:41;15.93;;;13.50;;
52590;SDS011;38483;42.620;25.394;2023-07-13T00:11:29;18.07;;;12.80;;
52590;SDS011;38483;42.620;25.394;2023-07-13T00:14:40;19.10;;;13.60;;
52590;SDS011;38483;42.620;25.394;2023-07-13T00:18:07;14.53;;;12.07;;
52590;SDS011;38483;42.620;25.394;2023-07-13T00:21:30;15.00;;;12.73;;
52590;SDS011;38483;42.620;25.394;2023-07-13T00:24:52;15.33;;;12.67;;
52590;SDS011;38483;42.620;25.394;2023-07-13T00:28:17;15.30;;;12.93;;
52590;SDS011;38483;42.620;25.394;2023-07-13T00:31:39;17.33;;;13.53;;
52590;SDS011;38483;42.620;25.394;2023-07-13T00:35:00;16.10;;;12.47;;
52590;SDS011;38483;42.620;25.394;2023-07-13T00:38:29;16.77;;;13.33;;
52590;SDS011;38483;42.620;25.394;2023-07-13T00:41:51;19.03;;;14.43;;
52590;SDS011;38483;42.620;25.394;2023-07-13T00:48:24;16.63;;;13.37;;
52590;SDS011;38483;42.620;25.394;2023-07-13T00:51:46;18.57;;;13.77;;
52590;SDS011;38483;42.620;25.394;2023-07-13T00:55:08;17.70;;;13.17;;
52590;SDS011;38483;42.620;25.394;2023-07-13T00:58:29;17.93;;;13.67;;
52590;SDS011;38483;42.620;25.394;2023-07-13T01:01:50;17.87;;;14.67;;
52590;SDS011;38483;42.620;25.394;2023-07-13T01:05:13;18.97;;;14.53;;
52590;SDS011;38483;42.620;25.394;2023-07-13T01:08:34;16.53;;;13.70;;
52590;SDS011;38483;42.620;25.394;2023-07-13T01:11:57;17.97;;;14.40;;
52590;SDS011;38483;42.620;25.394;2023-07-13T01:15:45;19.00;;;13.93;;
52590;SDS011;38483;42.620;25.394;2023-07-13T01:19:29;19.17;;;14.93;;
52590;SDS011;38483;42.620;25.394;2023-07-13T01:22:23;20.23;;;15.23;;
52590;SDS011;38483;42.620;25.394;2023-07-13T01:25:48;20.80;;;14.73;;
52590;SDS011;38483;42.620;25.394;2023-07-13T01:29:11;20.60;;;15.13;;
52590;SDS011;38483;42.620;25.394;2023-07-13T01:32:34;19.30;;;13.93;;
52590;SDS011;38483;42.620;25.394;2023-07-13T01:35:56;19.77;;;13.83;;
52590;SDS011;38483;42.620;25.394;2023-07-13T01:39:17;15.87;;;13.30;;
52590;SDS011;38483;42.620;25.394;2023-07-13T01:42:38;21.40;;;14.63;;
52590;SDS011;38483;42.620;25.394;2023-07-13T01:45:59;17.63;;;13.57;;
52590;SDS011;38483;42.620;25.394;2023-07-13T01:49:54;16.50;;;13.73;;
52590;SDS011;38483;42.620;25.394;2023-07-13T01:53:15;17.13;;;13.77;;
52590;SDS011;38483;42.620;25.394;2023-07-13T01:56:36;18.57;;;14.07;;
52590;SDS011;38483;42.620;25.394;2023-07-13T01:59:59;21.50;;;13.47;;
52590;SDS011;38483;42.620;25.394;2023-07-13T02:03:21;18.03;;;13.10;;
52590;SDS011;38483;42.620;25.394;2023-07-13T02:06:42;19.13;;;14.00;;
52590;SDS011;38483;42.620;25.394;2023-07-13T02:10:04;17.93;;;14.23;;
52590;SDS011;38483;42.620;25.394;2023-07-13T02:13:28;20.20;;;16.27;;
52590;SDS011;38483;42.620;25.394;2023-07-13T02:16:09;19.90;;;15.60;;
52590;SDS011;38483;42.620;25.394;2023-07-13T02:19:31;20.30;;;17.40;;
52590;SDS011;38483;42.620;25.394;2023-07-13T02:22:57;20.37;;;18.13;;
52590;SDS011;38483;42.620;25.394;2023-07-13T02:26:23;22.70;;;18.07;;
52590;SDS011;38483;42.620;25.394;2023-07-13T02:29:56;20.33;;;17.87;;
52590;SDS011;38483;42.620;25.394;2023-07-13T02:33:26;31.30;;;18.03;;
52590;SDS011;38483;42.620;25.394;2023-07-13T02:37:11;22.30;;;17.00;;
52590;SDS011;38483;42.620;25.394;2023-07-13T02:40:37;20.37;;;16.57;;
52590;SDS011;38483;42.620;25.394;2023-07-13T02:44:02;19.97;;;16.60;;
52590;SDS011;38483;42.620;25.394;2023-07-13T02:47:25;21.80;;;16.53;;
52590;SDS011;38483;42.620;25.394;2023-07-13T02:50:46;21.93;;;17.20;;
52590;SDS011;38483;42.620;25.394;2023-07-13T02:54:08;22.73;;;15.63;;
52590;SDS011;38483;42.620;25.394;2023-07-13T02:56:50;22.20;;;16.73;;
52590;SDS011;38483;42.620;25.394;2023-07-13T03:00:16;21.07;;;15.03;;
52590;SDS011;38483;42.620;25.394;2023-07-13T03:03:47;20.57;;;16.17;;
52590;SDS011;38483;42.620;25.394;2023-07-13T03:07:08;21.07;;;15.70;;
52590;SDS011;38483;42.620;25.394;2023-07-13T03:10:29;20.33;;;15.07;;
52590;SDS011;38483;42.620;25.394;2023-07-13T03:14:05;18.63;;;14.90;;
52590;SDS011;38483;42.620;25.394;2023-07-13T03:17:31;20.10;;;15.40;;
52590;SDS011;38483;42.620;25.394;2023-07-13T03:21:05;22.17;;;16.53;;
52590;SDS011;38483;42.620;25.394;2023-07-13T03:24:47;27.53;;;17.97;;
52590;SDS011;38483;42.620;25.394;2023-07-13T03:28:09;18.93;;;15.10;;
52590;SDS011;38483;42.620;25.394;2023-07-13T03:31:34;19.50;;;14.63;;
52590;SDS011;38483;42.620;25.394;2023-07-13T03:34:53;17.50;;;14.17;;
52590;SDS011;38483;42.620;25.394;2023-07-13T03:38:15;17.57;;;14.10;;
52590;SDS011;38483;42.620;25.394;2023-07-13T03:41:57;20.43;;;14.83;;
52590;SDS011;38483;42.620;25.394;2023-07-13T03:45:20;22.13;;;15.83;;
52590;SDS011;38483;42.620;25.394;2023-07-13T03:48:42;22.27;;;15.03;;
52590;SDS011;38483;42.620;25.394;2023-07-13T03:52:02;16.83;;;14.33;;
52590;SDS011;38483;42.620;25.394;2023-07-13T03:55:35;20.23;;;14.07;;
52590;SDS011;38483;42.620;25.394;2023-07-13T03:59:02;16.37;;;13.70;;
52590;SDS011;38483;42.620;25.394;2023-07-13T04:02:26;18.87;;;13.30;;
52590;SDS011;38483;42.620;25.394;2023-07-13T04:05:51;18.70;;;14.10;;
52590;SDS011;38483;42.620;25.394;2023-07-13T04:09:22;17.90;;;14.50;;
52590;SDS011;38483;42.620;25.394;2023-07-13T04:12:23;21.30;;;17.23;;
52590;SDS011;38483;42.620;25.394;2023-07-13T04:14:54;23.10;;;18.20;;
52590;SDS011;38483;42.620;25.394;2023-07-13T04:17:22;22.87;;;19.13;;
52590;SDS011;38483;42.620;25.394;2023-07-13T04:19:53;25.43;;;20.43;;
52590;SDS011;38483;42.620;25.394;2023-07-13T04:22:38;21.07;;;18.87;;
52590;SDS011;38483;42.620;25.394;2023-07-13T04:25:21;25.90;;;20.33;;
52590;SDS011;38483;42.620;25.394;2023-07-13T04:27:49;22.50;;;18.70;;
52590;SDS011;38483;42.620;25.394;2023-07-13T04:30:26;24.43;;;17.07;;
52590;SDS011;38483;42.620;25.394;2023-07-13T04:33:03;20.67;;;17.87;;
52590;SDS011;38483;42.620;25.394;2023-07-13T04:36:25;19.13;;;15.83;;
52590;SDS011;38483;42.620;25.394;2023-07-13T04:39:50;18.07;;;16.17;;
52590;SDS011;38483;42.620;25.394;2023-07-13T04:42:18;22.93;;;17.77;;
52590;SDS011;38483;42.620;25.394;2023-07-13T04:45:40;22.03;;;17.63;;
52590;SDS011;38483;42.620;25.394;2023-07-13T04:48:11;21.93;;;16.17;;
52590;SDS011;38483;42.620;25.394;2023-07-13T04:52:12;21.17;;;17.80;;
52590;SDS011;38483;42.620;25.394;2023-07-13T04:55:38;19.50;;;16.90;;
52590;SDS011;38483;42.620;25.394;2023-07-13T04:59:02;20.43;;;17.00;;
52590;SDS011;38483;42.620;25.394;2023-07-13T05:02:25;20.63;;;16.67;;
52590;SDS011;38483;42.620;25.394;2023-07-13T05:06:01;23.90;;;17.83;;
52590;SDS011;38483;42.620;25.394;2023-07-13T05:09:20;26.47;;;17.00;;
52590;SDS011;38483;42.620;25.394;2023-07-13T05:12:46;24.60;;;16.57;;
52590;SDS011;38483;42.620;25.394;2023-07-13T05:16:12;19.53;;;16.70;;
52590;SDS011;38483;42.620;25.394;2023-07-13T05:19:33;19.37;;;16.50;;
52590;SDS011;38483;42.620;25.394;2023-07-13T05:23:24;22.30;;;17.70;;
52590;SDS011;38483;42.620;25.394;2023-07-13T05:26:46;21.33;;;16.53;;
52590;SDS011;38483;42.620;25.394;2023-07-13T05:30:12;19.57;;;16.73;;
52590;SDS011;38483;42.620;25.394;2023-07-13T05:33:41;17.97;;;15.27;;
52590;SDS011;38483;42.620;25.394;2023-07-13T05:37:37;21.97;;;15.70;;
52590;SDS011;38483;42.620;25.394;2023-07-13T05:40:59;22.93;;;15.13;;
52590;SDS011;38483;42.620;25.394;2023-07-13T05:44:33;17.57;;;15.27;;
52590;SDS011;38483;42.620;25.394;2023-07-13T05:47:08;21.40;;;15.80;;
52590;SDS011;38483;42.620;25.394;2023-07-13T05:51:26;17.13;;;14.57;;
52590;SDS011;38483;42.620;25.394;2023-07-13T05:54:52;18.63;;;14.87;;
52590;SDS011;38483;42.620;25.394;2023-07-13T05:58:58;21.13;;;14.37;;
52590;SDS011;38483;42.620;25.394;2023-07-13T06:02:20;21.63;;;14.83;;
52590;SDS011;38483;42.620;25.394;2023-07-13T06:05:50;21.23;;;14.87;;
52590;SDS011;38483;42.620;25.394;2023-07-13T06:09:27;17.83;;;13.83;;
52590;SDS011;38483;42.620;25.394;2023-07-13T06:12:58;22.57;;;14.00;;
52590;SDS011;38483;42.620;25.394;2023-07-13T06:16:24;18.60;;;13.50;;
52590;SDS011;38483;42.620;25.394;2023-07-13T06:19:47;18.03;;;13.50;;
52590;SDS011;38483;42.620;25.394;2023-07-13T06:22:20;18.20;;;14.17;;
52590;SDS011;38483;42.620;25.394;2023-07-13T06:25:10;16.47;;;14.57;;
52590;SDS011;38483;42.620;25.394;2023-07-13T06:28:37;19.03;;;14.90;;
52590;SDS011;38483;42.620;25.394;2023-07-13T06:32:57;16.20;;;13.50;;
52590;SDS011;38483;42.620;25.394;2023-07-13T06:52:47;20.52;;;12.23;;
52590;SDS011;38483;42.620;25.394;2023-07-13T06:56:15;16.42;;;12.18;;
52590;SDS011;38483;42.620;25.394;2023-07-13T06:59:40;19.67;;;12.10;;
52590;SDS011;38483;42.620;25.394;2023-07-13T07:03:07;18.60;;;11.98;;
52590;SDS011;38483;42.620;25.394;2023-07-13T07:10:01;17.50;;;11.63;;
52590;SDS011;38483;42.620;25.394;2023-07-13T07:13:30;18.58;;;11.10;;
52590;SDS011;38483;42.620;25.394;2023-07-13T07:17:03;15.32;;;11.63;;
52590;SDS011;38483;42.620;25.394;2023-07-13T07:20:26;15.23;;;11.50;;
52590;SDS011;38483;42.620;25.394;2023-07-13T07:23:51;13.80;;;11.02;;
52590;SDS011;38483;42.620;25.394;2023-07-13T07:27:11;13.15;;;10.05;;
52590;SDS011;38483;42.620;25.394;2023-07-13T07:30:41;18.42;;;10.45;;
52590;SDS011;38483;42.620;25.394;2023-07-13T07:34:00;15.50;;;10.30;;
52590;SDS011;38483;42.620;25.394;2023-07-13T07:37:22;12.88;;;9.43;;
52590;SDS011;38483;42.620;25.394;2023-07-13T07:40:51;12.63;;;9.93;;
52590;SDS011;38483;42.620;25.394;2023-07-13T07:44:12;14.07;;;10.52;;
52590;SDS011;38483;42.620;25.394;2023-07-13T07:51:14;14.60;;;10.27;;
52590;SDS011;38483;42.620;25.394;2023-07-13T07:54:40;13.63;;;10.45;;
52590;SDS011;38483;42.620;25.394;2023-07-13T07:58:03;15.05;;;9.40;;
52590;SDS011;38483;42.620;25.394;2023-07-13T08:01:35;12.05;;;10.18;;
52590;SDS011;38483;42.620;25.394;2023-07-13T08:04:41;13.32;;;10.70;;
52590;SDS011;38483;42.620;25.394;2023-07-13T08:08:16;17.52;;;11.50;;
52590;SDS011;38483;42.620;25.394;2023-07-13T08:11:38;16.48;;;11.13;;
52590;SDS011;38483;42.620;25.394;2023-07-13T08:15:03;17.48;;;10.43;;
52590;SDS011;38483;42.620;25.394;2023-07-13T08:18:30;12.35;;;8.93;;
52590;SDS011;38483;42.620;25.394;2023-07-13T08:21:17;11.50;;;10.05;;
52590;SDS011;38483;42.620;25.394;2023-07-13T08:23:51;12.13;;;9.45;;
52590;SDS011;38483;42.620;25.394;2023-07-13T08:26:35;13.35;;;8.77;;
52590;SDS011;38483;42.620;25.394;2023-07-13T08:29:04;13.10;;;8.93;;
52590;SDS011;38483;42.620;25.394;2023-07-13T08:31:33;14.55;;;9.52;;
52590;SDS011;38483;42.620;25.394;2023-07-13T08:34:03;13.95;;;9.48;;
52590;SDS011;38483;42.620;25.394;2023-07-13T08:36:43;9.85;;;8.75;;
52590;SDS011;38483;42.620;25.394;2023-07-13T08:39:16;11.00;;;9.00;;
52590;SDS011;38483;42.620;25.394;2023-07-13T08:42:02;10.07;;;8.00;;
52590;SDS011;38483;42.620;25.394;2023-07-13T08:48:25;10.40;;;8.75;;
52590;SDS011;38483;42.620;25.394;2023-07-13T08:53:56;9.45;;;8.00;;
52590;SDS011;38483;42.620;25.394;2023-07-13T08:56:54;12.75;;;8.93;;
52590;SDS011;38483;42.620;25.394;2023-07-13T08:59:45;10.63;;;8.30;;
52590;SDS011;38483;42.620;25.394;2023-07-13T09:13:48;11.82;;;7.00;;
52590;SDS011;38483;42.620;25.394;2023-07-13T09:16:44;11.75;;;7.10;;
52590;SDS011;38483;42.620;25.394;2023-07-13T09:19:21;10.27;;;8.15;;
52590;SDS011;38483;42.620;25.394;2023-07-13T09:21:58;7.82;;;6.97;;
52590;SDS011;38483;42.620;25.394;2023-07-13T09:24:47;8.60;;;6.70;;
52590;SDS011;38483;42.620;25.394;2023-07-13T09:27:43;10.30;;;7.55;;
52590;SDS011;38483;42.620;25.394;2023-07-13T09:32:47;8.00;;;6.60;;
52590;SDS011;38483;42.620;25.394;2023-07-13T09:35:29;6.93;;;5.50;;
52590;SDS011;38483;42.620;25.394;2023-07-13T09:38:11;8.75;;;6.70;;
52590;SDS011;38483;42.620;25.394;2023-07-13T09:44:13;8.20;;;6.47;;
52590;SDS011;38483;42.620;25.394;2023-07-13T09:47:25;8.35;;;6.03;;
52590;SDS011;38483;42.620;25.394;2023-07-13T09:50:03;9.00;;;6.82;;
52590;SDS011;38483;42.620;25.394;2023-07-13T09:52:42;8.90;;;7.45;;
52590;SDS011;38483;42.620;25.394;2023-07-13T09:55:38;7.57;;;6.40;;
52590;SDS011;38483;42.620;25.394;2023-07-13T09:58:30;13.95;;;7.45;;
52590;SDS011;38483;42.620;25.394;2023-07-13T10:01:38;9.75;;;7.25;;
52590;SDS011;38483;42.620;25.394;2023-07-13T10:04:14;9.88;;;8.00;;
52590;SDS011;38483;42.620;25.394;2023-07-13T10:06:47;11.57;;;7.72;;
52590;SDS011;38483;42.620;25.394;2023-07-13T10:09:31;11.43;;;7.78;;
52590;SDS011;38483;42.620;25.394;2023-07-13T10:12:00;11.07;;;7.82;;
52590;SDS011;38483;42.620;25.394;2023-07-13T10:14:37;14.73;;;6.97;;
52590;SDS011;38483;42.620;25.394;2023-07-13T10:17:19;9.13;;;6.65;;
52590;SDS011;38483;42.620;25.394;2023-07-13T10:20:18;10.95;;;7.28;;
52590;SDS011;38483;42.620;25.394;2023-07-13T10:22:53;9.55;;;8.13;;
52590;SDS011;38483;42.620;25.394;2023-07-13T10:25:57;9.38;;;7.22;;
52590;SDS011;38483;42.620;25.394;2023-07-13T10:28:36;9.50;;;7.78;;
52590;SDS011;38483;42.620;25.394;2023-07-13T10:31:08;11.25;;;9.13;;
52590;SDS011;38483;42.620;25.394;2023-07-13T10:33:45;12.32;;;7.55;;
52590;SDS011;38483;42.620;25.394;2023-07-13T10:36:14;9.02;;;7.68;;
52590;SDS011;38483;42.620;25.394;2023-07-13T10:38:52;10.68;;;7.75;;
52590;SDS011;38483;42.620;25.394;2023-07-13T10:41:29;9.05;;;7.70;;
52590;SDS011;38483;42.620;25.394;2023-07-13T10:44:43;10.07;;;7.88;;
52590;SDS011;38483;42.620;25.394;2023-07-13T10:47:18;11.45;;;8.40;;
52590;SDS011;38483;42.620;25.394;2023-07-13T10:49:53;8.45;;;7.32;;
52590;SDS011;38483;42.620;25.394;2023-07-13T10:58:42;9.10;;;7.35;;
52590;SDS011;38483;42.620;25.394;2023-07-13T11:01:16;7.95;;;7.15;;
52590;SDS011;38483;42.620;25.394;2023-07-13T11:03:54;12.32;;;8.60;;
52590;SDS011;38483;42.620;25.394;2023-07-13T11:06:37;7.78;;;6.32;;
52590;SDS011;38483;42.620;25.394;2023-07-13T11:12:07;11.60;;;6.82;;
52590;SDS011;38483;42.620;25.394;2023-07-13T11:20:22;9.65;;;6.65;;
52590;SDS011;38483;42.620;25.394;2023-07-13T11:23:16;7.70;;;6.38;;
52590;SDS011;38483;42.620;25.394;2023-07-13T11:26:02;8.07;;;6.65;;
52590;SDS011;38483;42.620;25.394;2023-07-13T11:28:33;11.85;;;8.23;;
52590;SDS011;38483;42.620;25.394;2023-07-13T11:31:11;6.22;;;5.53;;
52590;SDS011;38483;42.620;25.394;2023-07-13T11:33:50;6.47;;;5.85;;
52590;SDS011;38483;42.620;25.394;2023-07-13T11:36:22;11.65;;;8.30;;
52590;SDS011;38483;42.620;25.394;2023-07-13T11:38:58;7.72;;;5.47;;
52590;SDS011;38483;42.620;25.394;2023-07-13T11:41:44;7.35;;;5.68;;
52590;SDS011;38483;42.620;25.394;2023-07-13T11:44:25;8.30;;;5.20;;
52590;SDS011;38483;42.620;25.394;2023-07-13T11:46:57;6.65;;;5.40;;
52590;SDS011;38483;42.620;25.394;2023-07-13T11:49:31;7.43;;;5.53;;
52590;SDS011;38483;42.620;25.394;2023-07-13T11:52:11;9.40;;;5.63;;
52590;SDS011;38483;42.620;25.394;2023-07-13T11:54:47;5.38;;;4.78;;
52590;SDS011;38483;42.620;25.394;2023-07-13T11:57:24;9.18;;;6.18;;
52590;SDS011;38483;42.620;25.394;2023-07-13T11:59:56;8.57;;;6.10;;
52590;SDS011;38483;42.620;25.394;2023-07-13T12:02:49;8.02;;;5.10;;
52590;SDS011;38483;42.620;25.394;2023-07-13T12:05:20;7.35;;;6.13;;
52590;SDS011;38483;42.620;25.394;2023-07-13T12:07:52;8.05;;;5.63;;
52590;SDS011;38483;42.620;25.394;2023-07-13T12:10:29;9.50;;;6.18;;
52590;SDS011;38483;42.620;25.394;2023-07-13T12:13:08;5.97;;;5.10;;
52590;SDS011;38483;42.620;25.394;2023-07-13T12:15:52;8.27;;;5.93;;
52590;SDS011;38483;42.620;25.394;2023-07-13T12:18:28;10.13;;;6.72;;
52590;SDS011;38483;42.620;25.394;2023-07-13T12:21:01;6.57;;;5.88;;
52590;SDS011;38483;42.620;25.394;2023-07-13T12:23:33;9.10;;;6.18;;
52590;SDS011;38483;42.620;25.394;2023-07-13T12:26:06;8.18;;;6.18;;
52590;SDS011;38483;42.620;25.394;2023-07-13T12:34:00;9.75;;;6.97;;
52590;SDS011;38483;42.620;25.394;2023-07-13T12:36:38;17.10;;;7.80;;
52590;SDS011;38483;42.620;25.394;2023-07-13T12:41:52;11.13;;;7.32;;
52590;SDS011;38483;42.620;25.394;2023-07-13T12:44:27;13.43;;;7.57;;
52590;SDS011;38483;42.620;25.394;2023-07-13T12:47:05;10.35;;;6.07;;
52590;SDS011;38483;42.620;25.394;2023-07-13T12:49:43;9.77;;;6.38;;
52590;SDS011;38483;42.620;25.394;2023-07-13T12:52:21;9.45;;;6.28;;
52590;SDS011;38483;42.620;25.394;2023-07-13T12:55:03;12.63;;;7.20;;
52590;SDS011;38483;42.620;25.394;2023-07-13T12:57:41;11.93;;;7.93;;
52590;SDS011;38483;42.620;25.394;2023-07-13T13:00:31;12.57;;;6.53;;
52590;SDS011;38483;42.620;25.394;2023-07-13T13:03:32;9.65;;;6.47;;
52590;SDS011;38483;42.620;25.394;2023-07-13T13:06:20;8.98;;;6.45;;
52590;SDS011;38483;42.620;25.394;2023-07-13T13:08:55;12.00;;;6.93;;
52590;SDS011;38483;42.620;25.394;2023-07-13T13:11:29;12.20;;;7.10;;
52590;SDS011;38483;42.620;25.394;2023-07-13T13:14:00;10.68;;;6.30;;
52590;SDS011;38483;42.620;25.394;2023-07-13T13:21:45;12.85;;;7.40;;
52590;SDS011;38483;42.620;25.394;2023-07-13T13:24:15;14.05;;;7.88;;
52590;SDS011;38483;42.620;25.394;2023-07-13T13:26:48;13.90;;;7.18;;
52590;SDS011;38483;42.620;25.394;2023-07-13T13:29:36;8.70;;;6.72;;
52590;SDS011;38483;42.620;25.394;2023-07-13T13:32:09;12.00;;;6.93;;
52590;SDS011;38483;42.620;25.394;2023-07-13T13:34:43;10.57;;;6.18;;
52590;SDS011;38483;42.620;25.394;2023-07-13T13:37:21;9.00;;;6.63;;
52590;SDS011;38483;42.620;25.394;2023-07-13T13:39:54;9.55;;;7.20;;
52590;SDS011;38483;42.620;25.394;2023-07-13T13:42:34;14.88;;;9.30;;
52590;SDS011;38483;42.620;25.394;2023-07-13T13:45:04;12.13;;;7.60;;
52590;SDS011;38483;42.620;25.394;2023-07-13T13:47:40;12.48;;;6.53;;
52590;SDS011;38483;42.620;25.394;2023-07-13T13:50:11;10.50;;;6.80;;
52590;SDS011;38483;42.620;25.394;2023-07-13T13:52:46;9.52;;;7.20;;
52590;SDS011;38483;42.620;25.394;2023-07-13T13:55:17;10.50;;;6.30;;
52590;SDS011;38483;42.620;25.394;2023-07-13T13:57:50;14.32;;;6.72;;
52590;SDS011;38483;42.620;25.394;2023-07-13T14:00:28;10.75;;;6.85;;
52590;SDS011;38483;42.620;25.394;2023-07-13T14:03:14;13.65;;;7.30;;
52590;SDS011;38483;42.620;25.394;2023-07-13T14:05:49;9.05;;;6.13;;
52590;SDS011;38483;42.620;25.394;2023-07-13T14:08:21;12.52;;;7.28;;
52590;SDS011;38483;42.620;25.394;2023-07-13T14:10:51;13.75;;;7.50;;
52590;SDS011;38483;42.620;25.394;2023-07-13T14:13:24;15.18;;;7.53;;
52590;SDS011;38483;42.620;25.394;2023-07-13T14:16:02;12.43;;;6.57;;
52590;SDS011;38483;42.620;25.394;2023-07-13T14:18:34;10.60;;;7.18;;
52590;SDS011;38483;42.620;25.394;2023-07-13T14:21:20;12.30;;;7.10;;
52590;SDS011;38483;42.620;25.394;2023-07-13T14:23:49;13.75;;;8.43;;
52590;SDS011;38483;42.620;25.394;2023-07-13T14:26:26;11.00;;;6.57;;
52590;SDS011;38483;42.620;25.394;2023-07-13T14:28:56;12.13;;;7.20;;
52590;SDS011;38483;42.620;25.394;2023-07-13T14:31:28;13.75;;;7.13;;
52590;SDS011;38483;42.620;25.394;2023-07-13T14:34:16;11.80;;;6.78;;
52590;SDS011;38483;42.620;25.394;2023-07-13T14:36:56;11.40;;;6.65;;
52590;SDS011;38483;42.620;25.394;2023-07-13T14:39:45;12.32;;;6.38;;
52590;SDS011;38483;42.620;25.394;2023-07-13T14:42:54;13.40;;;7.60;;
52590;SDS011;38483;42.620;25.394;2023-07-13T14:45:22;10.02;;;6.72;;
52590;SDS011;38483;42.620;25.394;2023-07-13T14:48:20;9.63;;;6.93;;
52590;SDS011;38483;42.620;25.394;2023-07-13T14:51:14;11.93;;;7.07;;
52590;SDS011;38483;42.620;25.394;2023-07-13T14:54:04;17.10;;;7.53;;
52590;SDS011;38483;42.620;25.394;2023-07-13T14:56:48;12.25;;;6.38;;
52590;SDS011;38483;42.620;25.394;2023-07-13T14:59:19;15.57;;;7.35;;
52590;SDS011;38483;42.620;25.394;2023-07-13T15:01:47;12.52;;;6.75;;
52590;SDS011;38483;42.620;25.394;2023-07-13T15:04:18;12.35;;;7.03;;
52590;SDS011;38483;42.620;25.394;2023-07-13T15:06:59;12.35;;;6.85;;
52590;SDS011;38483;42.620;25.394;2023-07-13T15:09:44;13.07;;;6.93;;
52590;SDS011;38483;42.620;25.394;2023-07-13T15:12:18;13.15;;;7.63;;
52590;SDS011;38483;42.620;25.394;2023-07-13T15:14:49;13.23;;;8.13;;
52590;SDS011;38483;42.620;25.394;2023-07-13T15:17:24;13.07;;;6.85;;
52590;SDS011;38483;42.620;25.394;2023-07-13T15:20:00;10.52;;;7.18;;
52590;SDS011;38483;42.620;25.394;2023-07-13T15:22:31;11.13;;;7.00;;
52590;SDS011;38483;42.620;25.394;2023-07-13T15:25:07;17.80;;;7.53;;
52590;SDS011;38483;42.620;25.394;2023-07-13T15:27:52;10.68;;;7.25;;
52590;SDS011;38483;42.620;25.394;2023-07-13T15:34:11;10.45;;;7.03;;
52590;SDS011;38483;42.620;25.394;2023-07-13T15:36:46;13.20;;;7.43;;
52590;SDS011;38483;42.620;25.394;2023-07-13T15:39:22;12.30;;;7.28;;
52590;SDS011;38483;42.620;25.394;2023-07-13T15:42:00;14.00;;;7.85;;
52590;SDS011;38483;42.620;25.394;2023-07-13T15:44:46;11.68;;;6.70;;
52590;SDS011;38483;42.620;25.394;2023-07-13T15:47:20;13.23;;;6.93;;
52590;SDS011;38483;42.620;25.394;2023-07-13T15:49:54;13.60;;;7.35;;
52590;SDS011;38483;42.620;25.394;2023-07-13T15:52:30;14.07;;;8.38;;
52590;SDS011;38483;42.620;25.394;2023-07-13T15:55:01;11.63;;;7.55;;
52590;SDS011;38483;42.620;25.394;2023-07-13T15:57:35;10.55;;;6.55;;
52590;SDS011;38483;42.620;25.394;2023-07-13T16:00:12;12.25;;;7.13;;
52590;SDS011;38483;42.620;25.394;2023-07-13T16:02:57;12.68;;;6.57;;
52590;SDS011;38483;42.620;25.394;2023-07-13T16:05:44;12.23;;;6.72;;
52590;SDS011;38483;42.620;25.394;2023-07-13T16:08:46;15.40;;;8.13;;
52590;SDS011;38483;42.620;25.394;2023-07-13T16:11:20;15.00;;;7.50;;
52590;SDS011;38483;42.620;25.394;2023-07-13T16:13:58;12.60;;;7.38;;
52590;SDS011;38483;42.620;25.394;2023-07-13T16:16:29;14.15;;;7.38;;
52590;SDS011;38483;42.620;25.394;2023-07-13T16:19:03;12.40;;;7.10;;
52590;SDS011;38483;42.620;25.394;2023-07-13T16:21:35;9.90;;;6.82;;
52590;SDS011;38483;42.620;25.394;2023-07-13T16:24:18;14.13;;;7.60;;
52590;SDS011;38483;42.620;25.394;2023-07-13T16:26:49;16.25;;;7.57;;
52590;SDS011;38483;42.620;25.394;2023-07-13T16:29:24;15.85;;;7.97;;
52590;SDS011;38483;42.620;25.394;2023-07-13T16:34:42;12.60;;;7.10;;
52590;SDS011;38483;42.620;25.394;2023-07-13T16:37:25;13.60;;;6.82;;
52590;SDS011;38483;42.620;25.394;2023-07-13T16:39:56;10.63;;;6.78;;
52590;SDS011;38483;42.620;25.394;2023-07-13T16:42:26;12.27;;;6.80;;
52590;SDS011;38483;42.620;25.394;2023-07-13T16:44:58;12.35;;;6.68;;
52590;SDS011;38483;42.620;25.394;2023-07-13T16:47:28;11.10;;;7.25;;
52590;SDS011;38483;42.620;25.394;2023-07-13T16:49:56;11.07;;;6.70;;
52590;SDS011;38483;42.620;25.394;2023-07-13T16:52:25;8.95;;;6.35;;
52590;SDS011;38483;42.620;25.394;2023-07-13T16:54:56;11.45;;;6.60;;
52590;SDS011;38483;42.620;25.394;2023-07-13T16:57:28;19.35;;;7.68;;
52590;SDS011;38483;42.620;25.394;2023-07-13T17:00:01;14.40;;;7.82;;
52590;SDS011;38483;42.620;25.394;2023-07-13T17:02:37;17.08;;;7.32;;
52590;SDS011;38483;42.620;25.394;2023-07-13T17:05:09;14.95;;;7.97;;
52590;SDS011;38483;42.620;25.394;2023-07-13T17:07:47;14.52;;;8.10;;
52590;SDS011;38483;42.620;25.394;2023-07-13T17:10:18;13.77;;;7.25;;
52590;SDS011;38483;42.620;25.394;2023-07-13T17:12:51;13.95;;;8.10;;
52590;SDS011;38483;42.620;25.394;2023-07-13T17:15:25;20.02;;;8.30;;
52590;SDS011;38483;42.620;25.394;2023-07-13T17:17:59;18.00;;;8.70;;
52590;SDS011;38483;42.620;25.394;2023-07-13T17:20:37;20.30;;;9.75;;
52590;SDS011;38483;42.620;25.394;2023-07-13T17:23:20;16.63;;;8.45;;
52590;SDS011;38483;42.620;25.394;2023-07-13T17:25:54;18.40;;;9.10;;
52590;SDS011;38483;42.620;25.394;2023-07-13T17:28:23;23.30;;;9.95;;
52590;SDS011;38483;42.620;25.394;2023-07-13T17:30:53;15.13;;;9.70;;
52590;SDS011;38483;42.620;25.394;2023-07-13T17:33:27;18.80;;;10.60;;
52590;SDS011;38483;42.620;25.394;2023-07-13T17:36:13;17.83;;;9.35;;
52590;SDS011;38483;42.620;25.394;2023-07-13T17:38:56;17.73;;;8.48;;
52590;SDS011;38483;42.620;25.394;2023-07-13T17:41:31;16.80;;;9.07;;
52590;SDS011;38483;42.620;25.394;2023-07-13T17:43:59;19.02;;;9.13;;
52590;SDS011;38483;42.620;25.394;2023-07-13T17:46:29;19.60;;;10.70;;
52590;SDS011;38483;42.620;25.394;2023-07-13T17:48:59;20.58;;;12.40;;
52590;SDS011;38483;42.620;25.394;2023-07-13T17:51:28;23.58;;;9.25;;
52590;SDS011;38483;42.620;25.394;2023-07-13T17:53:55;17.58;;;7.70;;
52590;SDS011;38483;42.620;25.394;2023-07-13T17:56:25;21.00;;;8.23;;
52590;SDS011;38483;42.620;25.394;2023-07-13T17:58:55;19.58;;;8.82;;
52590;SDS011;38483;42.620;25.394;2023-07-13T18:01:25;15.63;;;8.63;;
52590;SDS011;38483;42.620;25.394;2023-07-13T18:04:04;23.02;;;12.85;;
52590;SDS011;38483;42.620;25.394;2023-07-13T18:06:41;15.15;;;8.43;;
52590;SDS011;38483;42.620;25.394;2023-07-13T18:09:25;18.92;;;9.63;;
52590;SDS011;38483;42.620;25.394;2023-07-13T18:12:29;18.83;;;9.90;;
52590;SDS011;38483;42.620;25.394;2023-07-13T18:15:41;20.10;;;11.27;;
52590;SDS011;38483;42.620;25.394;2023-07-13T18:18:09;17.40;;;10.00;;
52590;SDS011;38483;42.620;25.394;2023-07-13T18:20:59;14.98;;;8.50;;
52590;SDS011;38483;42.620;25.394;2023-07-13T18:24:01;13.00;;;8.40;;
52590;SDS011;38483;42.620;25.394;2023-07-13T18:26:56;17.40;;;8.25;;
52590;SDS011;38483;42.620;25.394;2023-07-13T18:30:56;13.77;;;8.25;;